sensor_id;sensor_type;location;lat;lon;timestamp;temperature;humidity
2929;DHT22;1474;51.460;7.150;2023-01-08T00:02:02;10.30;99.90
2929;DHT22;1474;51.460;7.150;2023-01-08T00:04:28;10.30;99.90
2929;DHT22;1474;51.460;7.150;2023-01-08T00:06:53;10.30;99.90
2929;DHT22;1474;51.460;7.150;2023-01-08T00:09:19;10.30;99.90
2929;DHT22;1474;51.460;7.150;2023-01-08T00:11:44;10.40;99.90
2929;DHT22;1474;51.460;7.150;2023-01-08T00:14:10;10.30;99.90
2929;DHT22;1474;51.460;7.150;2023-01-08T00:16:36;10.40;99.90
2929;DHT22;1474;51.460;7.150;2023-01-08T00:19:02;10.40;99.90
2929;DHT22;1474;51.460;7.150;2023-01-08T00:21:28;10.30;99.90
2929;DHT22;1474;51.460;7.150;2023-01-08T00:23:54;10.30;99.90
2929;DHT22;1474;51.460;7.150;2023-01-08T00:26:19;10.40;99.90
2929;DHT22;1474;51.460;7.150;2023-01-08T00:28:45;10.30;99.90
2929;DHT22;1474;51.460;7.150;2023-01-08T00:31:11;10.30;99.90
2929;DHT22;1474;51.460;7.150;2023-01-08T00:33:38;10.30;99.90
2929;DHT22;1474;51.460;7.150;2023-01-08T00:36:09;10.30;99.90
2929;DHT22;1474;51.460;7.150;2023-01-08T00:38:36;10.30;99.90
2929;DHT22;1474;51.460;7.150;2023-01-08T00:41:02;10.30;99.90
2929;DHT22;1474;51.460;7.150;2023-01-08T00:43:27;10.20;99.90
2929;DHT22;1474;51.460;7.150;2023-01-08T00:45:53;10.20;99.90
2929;DHT22;1474;51.460;7.150;2023-01-08T00:48:20;10.20;99.90
2929;DHT22;1474;51.460;7.150;2023-01-08T00:50:50;10.30;99.90
2929;DHT22;1474;51.460;7.150;2023-01-08T00:53:17;10.30;99.90
2929;DHT22;1474;51.460;7.150;2023-01-08T00:55:43;10.30;99.90
2929;DHT22;1474;51.460;7.150;2023-01-08T00:58:09;10.30;99.90
2929;DHT22;1474;51.460;7.150;2023-01-08T01:00:34;10.30;99.90
2929;DHT22;1474;51.460;7.150;2023-01-08T01:03:00;10.30;99.90
2929;DHT22;1474;51.460;7.150;2023-01-08T01:05:25;10.30;99.90
2929;DHT22;1474;51.460;7.150;2023-01-08T01:07:51;10.30;99.90
2929;DHT22;1474;51.460;7.150;2023-01-08T01:10:17;10.30;99.90
2929;DHT22;1474;51.460;7.150;2023-01-08T01:12:43;10.30;99.90
2929;DHT22;1474;51.460;7.150;2023-01-08T01:15:13;10.30;99.90
2929;DHT22;1474;51.460;7.150;2023-01-08T01:17:40;10.30;99.90
2929;DHT22;1474;51.460;7.150;2023-01-08T01:20:08;10.30;99.90
2929;DHT22;1474;51.460;7.150;2023-01-08T01:22:34;10.20;99.90
2929;DHT22;1474;51.460;7.150;2023-01-08T01:25:00;10.30;99.90
2929;DHT22;1474;51.460;7.150;2023-01-08T01:27:26;10.30;99.90
2929;DHT22;1474;51.460;7.150;2023-01-08T01:29:52;10.30;99.90
2929;DHT22;1474;51.460;7.150;2023-01-08T01:32:18;10.30;99.90
2929;DHT22;1474;51.460;7.150;2023-01-08T01:34:43;10.30;99.90
2929;DHT22;1474;51.460;7.150;2023-01-08T01:37:12;10.30;99.90
2929;DHT22;1474;51.460;7.150;2023-01-08T01:39:38;10.30;99.90
2929;DHT22;1474;51.460;7.150;2023-01-08T01:42:04;10.30;99.90
2929;DHT22;1474;51.460;7.150;2023-01-08T01:44:40;10.30;99.90
2929;DHT22;1474;51.460;7.150;2023-01-08T01:47:15;10.30;99.90
2929;DHT22;1474;51.460;7.150;2023-01-08T01:50:10;10.30;99.90
2929;DHT22;1474;51.460;7.150;2023-01-08T01:52:42;10.30;99.90
2929;DHT22;1474;51.460;7.150;2023-01-08T01:55:13;10.30;99.90
2929;DHT22;1474;51.460;7.150;2023-01-08T01:57:43;10.30;99.90
2929;DHT22;1474;51.460;7.150;2023-01-08T02:00:10;10.30;99.90
2929;DHT22;1474;51.460;7.150;2023-01-08T02:02:36;10.30;99.90
2929;DHT22;1474;51.460;7.150;2023-01-08T02:05:02;10.30;99.90
2929;DHT22;1474;51.460;7.150;2023-01-08T02:07:55;10.30;99.90
2929;DHT22;1474;51.460;7.150;2023-01-08T02:10:35;10.30;99.90
2929;DHT22;1474;51.460;7.150;2023-01-08T02:13:11;10.30;99.90
2929;DHT22;1474;51.460;7.150;2023-01-08T02:16:00;10.20;99.90
2929;DHT22;1474;51.460;7.150;2023-01-08T02:18:53;10.30;99.90
2929;DHT22;1474;51.460;7.150;2023-01-08T02:24:16;10.20;99.90
2929;DHT22;1474;51.460;7.150;2023-01-08T02:26:45;10.20;99.90
2929;DHT22;1474;51.460;7.150;2023-01-08T02:29:14;10.20;99.90
2929;DHT22;1474;51.460;7.150;2023-01-08T02:31:41;10.20;99.90
2929;DHT22;1474;51.460;7.150;2023-01-08T02:34:08;10.20;99.90
2929;DHT22;1474;51.460;7.150;2023-01-08T02:36:40;10.20;99.90
2929;DHT22;1474;51.460;7.150;2023-01-08T02:45:25;10.20;99.90
2929;DHT22;1474;51.460;7.150;2023-01-08T02:47:55;10.20;99.90
2929;DHT22;1474;51.460;7.150;2023-01-08T02:50:34;10.20;99.90
2929;DHT22;1474;51.460;7.150;2023-01-08T02:53:14;10.20;99.90
2929;DHT22;1474;51.460;7.150;2023-01-08T02:55:45;10.20;99.90
2929;DHT22;1474;51.460;7.150;2023-01-08T02:58:13;10.20;99.90
2929;DHT22;1474;51.460;7.150;2023-01-08T03:00:40;10.10;99.90
2929;DHT22;1474;51.460;7.150;2023-01-08T03:03:10;10.10;99.90
2929;DHT22;1474;51.460;7.150;2023-01-08T03:05:39;10.20;99.90
2929;DHT22;1474;51.460;7.150;2023-01-08T03:08:06;10.10;99.90
2929;DHT22;1474;51.460;7.150;2023-01-08T03:10:33;10.10;99.90
2929;DHT22;1474;51.460;7.150;2023-01-08T03:13:06;10.10;99.90
2929;DHT22;1474;51.460;7.150;2023-01-08T03:16:05;10.10;99.90
2929;DHT22;1474;51.460;7.150;2023-01-08T03:18:51;10.10;99.90
2929;DHT22;1474;51.460;7.150;2023-01-08T03:21:27;10.10;99.90
2929;DHT22;1474;51.460;7.150;2023-01-08T03:24:30;10.10;99.90
2929;DHT22;1474;51.460;7.150;2023-01-08T03:27:47;10.10;99.90
2929;DHT22;1474;51.460;7.150;2023-01-08T03:30:18;10.10;99.90
2929;DHT22;1474;51.460;7.150;2023-01-08T03:32:46;10.10;99.90
2929;DHT22;1474;51.460;7.150;2023-01-08T03:35:16;10.10;99.90
2929;DHT22;1474;51.460;7.150;2023-01-08T03:37:44;10.10;99.90
2929;DHT22;1474;51.460;7.150;2023-01-08T03:40:20;10.10;99.90
2929;DHT22;1474;51.460;7.150;2023-01-08T03:42:48;10.10;99.90
2929;DHT22;1474;51.460;7.150;2023-01-08T03:45:13;10.10;99.90
2929;DHT22;1474;51.460;7.150;2023-01-08T03:47:40;10.10;99.90
2929;DHT22;1474;51.460;7.150;2023-01-08T03:50:10;10.10;99.90
2929;DHT22;1474;51.460;7.150;2023-01-08T03:52:38;10.10;99.90
2929;DHT22;1474;51.460;7.150;2023-01-08T03:55:04;10.10;99.90
2929;DHT22;1474;51.460;7.150;2023-01-08T03:57:30;10.00;99.90
2929;DHT22;1474;51.460;7.150;2023-01-08T03:59:55;10.00;99.90
2929;DHT22;1474;51.460;7.150;2023-01-08T04:02:21;10.00;99.90
2929;DHT22;1474;51.460;7.150;2023-01-08T04:04:47;10.00;99.90
2929;DHT22;1474;51.460;7.150;2023-01-08T04:07:13;10.10;99.90
2929;DHT22;1474;51.460;7.150;2023-01-08T04:09:38;10.00;99.90
2929;DHT22;1474;51.460;7.150;2023-01-08T04:12:04;10.10;99.90
2929;DHT22;1474;51.460;7.150;2023-01-08T04:14:30;10.00;99.90
2929;DHT22;1474;51.460;7.150;2023-01-08T04:16:55;10.10;99.90
2929;DHT22;1474;51.460;7.150;2023-01-08T04:19:21;10.00;99.90
2929;DHT22;1474;51.460;7.150;2023-01-08T04:21:49;10.00;99.90
2929;DHT22;1474;51.460;7.150;2023-01-08T04:24:15;10.00;99.90
2929;DHT22;1474;51.460;7.150;2023-01-08T04:26:41;10.00;99.90
2929;DHT22;1474;51.460;7.150;2023-01-08T04:29:07;10.00;99.90
2929;DHT22;1474;51.460;7.150;2023-01-08T04:31:32;10.00;99.90
2929;DHT22;1474;51.460;7.150;2023-01-08T04:33:58;10.00;99.90
2929;DHT22;1474;51.460;7.150;2023-01-08T04:36:24;10.00;99.90
2929;DHT22;1474;51.460;7.150;2023-01-08T04:38:49;10.00;99.90
2929;DHT22;1474;51.460;7.150;2023-01-08T04:41:15;10.10;99.90
2929;DHT22;1474;51.460;7.150;2023-01-08T04:43:42;10.00;99.90
2929;DHT22;1474;51.460;7.150;2023-01-08T04:46:08;10.10;99.90
2929;DHT22;1474;51.460;7.150;2023-01-08T04:48:34;10.10;99.90
2929;DHT22;1474;51.460;7.150;2023-01-08T04:51:01;10.10;99.90
2929;DHT22;1474;51.460;7.150;2023-01-08T04:53:29;10.00;99.90
2929;DHT22;1474;51.460;7.150;2023-01-08T04:55:54;10.00;99.90
2929;DHT22;1474;51.460;7.150;2023-01-08T04:58:21;10.00;99.90
2929;DHT22;1474;51.460;7.150;2023-01-08T05:00:46;9.90;99.90
2929;DHT22;1474;51.460;7.150;2023-01-08T05:03:12;10.00;99.90
2929;DHT22;1474;51.460;7.150;2023-01-08T05:05:39;9.90;99.90
2929;DHT22;1474;51.460;7.150;2023-01-08T05:08:04;9.90;99.90
2929;DHT22;1474;51.460;7.150;2023-01-08T05:10:30;9.90;99.90
2929;DHT22;1474;51.460;7.150;2023-01-08T05:12:59;9.90;99.90
2929;DHT22;1474;51.460;7.150;2023-01-08T05:15:25;9.90;99.90
2929;DHT22;1474;51.460;7.150;2023-01-08T05:18:02;9.90;99.90
2929;DHT22;1474;51.460;7.150;2023-01-08T05:20:28;9.90;99.90
2929;DHT22;1474;51.460;7.150;2023-01-08T05:22:54;9.90;99.90
2929;DHT22;1474;51.460;7.150;2023-01-08T05:25:20;9.80;99.90
2929;DHT22;1474;51.460;7.150;2023-01-08T05:27:46;9.80;99.90
2929;DHT22;1474;51.460;7.150;2023-01-08T05:30:12;9.80;99.90
2929;DHT22;1474;51.460;7.150;2023-01-08T05:32:38;9.80;99.90
2929;DHT22;1474;51.460;7.150;2023-01-08T05:35:04;9.90;99.90
2929;DHT22;1474;51.460;7.150;2023-01-08T05:37:32;9.80;99.90
2929;DHT22;1474;51.460;7.150;2023-01-08T05:39:57;9.80;99.90
2929;DHT22;1474;51.460;7.150;2023-01-08T05:42:26;9.80;99.90
2929;DHT22;1474;51.460;7.150;2023-01-08T05:44:51;9.80;99.90
2929;DHT22;1474;51.460;7.150;2023-01-08T05:47:17;9.80;99.90
2929;DHT22;1474;51.460;7.150;2023-01-08T05:49:42;9.80;99.90
2929;DHT22;1474;51.460;7.150;2023-01-08T05:52:08;9.80;99.90
2929;DHT22;1474;51.460;7.150;2023-01-08T05:54:34;9.80;99.90
2929;DHT22;1474;51.460;7.150;2023-01-08T05:56:59;9.90;99.90
2929;DHT22;1474;51.460;7.150;2023-01-08T05:59:25;9.90;99.90
2929;DHT22;1474;51.460;7.150;2023-01-08T06:01:51;9.90;99.90
2929;DHT22;1474;51.460;7.150;2023-01-08T06:04:16;9.80;99.90
2929;DHT22;1474;51.460;7.150;2023-01-08T06:06:42;9.80;99.90
2929;DHT22;1474;51.460;7.150;2023-01-08T06:09:07;9.80;99.90
2929;DHT22;1474;51.460;7.150;2023-01-08T06:11:33;9.80;99.90
2929;DHT22;1474;51.460;7.150;2023-01-08T06:13:59;9.80;99.90
2929;DHT22;1474;51.460;7.150;2023-01-08T06:16:24;9.80;99.90
2929;DHT22;1474;51.460;7.150;2023-01-08T06:18:50;9.80;99.90
2929;DHT22;1474;51.460;7.150;2023-01-08T06:21:16;9.80;99.90
2929;DHT22;1474;51.460;7.150;2023-01-08T06:23:41;9.80;99.90
2929;DHT22;1474;51.460;7.150;2023-01-08T06:26:07;9.90;99.90
2929;DHT22;1474;51.460;7.150;2023-01-08T06:28:33;9.80;99.90
2929;DHT22;1474;51.460;7.150;2023-01-08T06:30:59;9.90;99.90
2929;DHT22;1474;51.460;7.150;2023-01-08T06:33:25;9.90;99.90
2929;DHT22;1474;51.460;7.150;2023-01-08T06:35:51;9.90;99.90
2929;DHT22;1474;51.460;7.150;2023-01-08T06:38:17;9.90;99.90
2929;DHT22;1474;51.460;7.150;2023-01-08T06:40:44;9.90;99.90
2929;DHT22;1474;51.460;7.150;2023-01-08T06:43:09;9.80;99.90
2929;DHT22;1474;51.460;7.150;2023-01-08T06:45:35;9.80;99.90
2929;DHT22;1474;51.460;7.150;2023-01-08T06:48:02;9.80;99.90
2929;DHT22;1474;51.460;7.150;2023-01-08T06:50:28;9.80;99.90
2929;DHT22;1474;51.460;7.150;2023-01-08T06:52:55;9.90;99.90
2929;DHT22;1474;51.460;7.150;2023-01-08T06:55:22;9.90;99.90
2929;DHT22;1474;51.460;7.150;2023-01-08T06:57:51;9.90;99.90
2929;DHT22;1474;51.460;7.150;2023-01-08T07:00:17;9.90;99.90
2929;DHT22;1474;51.460;7.150;2023-01-08T07:02:43;9.90;99.90
2929;DHT22;1474;51.460;7.150;2023-01-08T07:05:08;9.90;99.90
2929;DHT22;1474;51.460;7.150;2023-01-08T07:07:35;9.90;99.90
2929;DHT22;1474;51.460;7.150;2023-01-08T07:10:00;9.90;99.90
2929;DHT22;1474;51.460;7.150;2023-01-08T07:12:26;9.90;99.90
2929;DHT22;1474;51.460;7.150;2023-01-08T07:14:51;9.90;99.90
2929;DHT22;1474;51.460;7.150;2023-01-08T07:17:17;9.80;99.90
2929;DHT22;1474;51.460;7.150;2023-01-08T07:19:43;9.70;99.90
2929;DHT22;1474;51.460;7.150;2023-01-08T07:22:08;9.50;99.90
2929;DHT22;1474;51.460;7.150;2023-01-08T07:24:34;9.40;99.90
2929;DHT22;1474;51.460;7.150;2023-01-08T07:26:59;9.30;99.90
2929;DHT22;1474;51.460;7.150;2023-01-08T07:31:52;8.90;99.90
2929;DHT22;1474;51.460;7.150;2023-01-08T07:34:17;8.90;99.90
2929;DHT22;1474;51.460;7.150;2023-01-08T07:36:43;8.90;99.90
2929;DHT22;1474;51.460;7.150;2023-01-08T07:39:08;8.80;99.90
2929;DHT22;1474;51.460;7.150;2023-01-08T07:41:34;8.70;99.90
2929;DHT22;1474;51.460;7.150;2023-01-08T07:44:00;8.60;99.90
2929;DHT22;1474;51.460;7.150;2023-01-08T07:46:25;8.50;99.90
2929;DHT22;1474;51.460;7.150;2023-01-08T07:48:51;8.50;99.90
2929;DHT22;1474;51.460;7.150;2023-01-08T07:51:17;8.50;99.90
2929;DHT22;1474;51.460;7.150;2023-01-08T07:53:42;8.40;99.90
2929;DHT22;1474;51.460;7.150;2023-01-08T07:56:09;8.40;99.90
2929;DHT22;1474;51.460;7.150;2023-01-08T07:58:36;8.40;99.90
2929;DHT22;1474;51.460;7.150;2023-01-08T08:01:06;8.40;99.90
2929;DHT22;1474;51.460;7.150;2023-01-08T08:03:32;8.40;99.90
2929;DHT22;1474;51.460;7.150;2023-01-08T08:05:59;8.30;99.90
2929;DHT22;1474;51.460;7.150;2023-01-08T08:08:25;8.40;99.90
2929;DHT22;1474;51.460;7.150;2023-01-08T08:10:51;8.40;99.90
2929;DHT22;1474;51.460;7.150;2023-01-08T08:13:16;8.30;99.90
2929;DHT22;1474;51.460;7.150;2023-01-08T08:15:42;8.30;99.90
2929;DHT22;1474;51.460;7.150;2023-01-08T08:18:08;8.30;99.90
2929;DHT22;1474;51.460;7.150;2023-01-08T08:20:34;8.30;99.90
2929;DHT22;1474;51.460;7.150;2023-01-08T08:23:12;8.30;99.90
2929;DHT22;1474;51.460;7.150;2023-01-08T08:25:39;8.30;99.90
2929;DHT22;1474;51.460;7.150;2023-01-08T08:28:05;8.30;99.90
2929;DHT22;1474;51.460;7.150;2023-01-08T08:30:32;8.30;99.90
2929;DHT22;1474;51.460;7.150;2023-01-08T08:32:59;8.30;99.90
2929;DHT22;1474;51.460;7.150;2023-01-08T08:35:26;8.30;99.90
2929;DHT22;1474;51.460;7.150;2023-01-08T08:37:53;8.30;99.90
2929;DHT22;1474;51.460;7.150;2023-01-08T08:40:18;8.30;99.90
2929;DHT22;1474;51.460;7.150;2023-01-08T08:42:44;8.40;99.90
2929;DHT22;1474;51.460;7.150;2023-01-08T08:45:09;8.40;99.90
2929;DHT22;1474;51.460;7.150;2023-01-08T08:47:35;8.30;99.90
2929;DHT22;1474;51.460;7.150;2023-01-08T08:50:01;8.30;99.90
2929;DHT22;1474;51.460;7.150;2023-01-08T08:52:29;8.30;99.90
2929;DHT22;1474;51.460;7.150;2023-01-08T08:54:54;8.30;99.90
2929;DHT22;1474;51.460;7.150;2023-01-08T08:57:25;8.30;99.90
2929;DHT22;1474;51.460;7.150;2023-01-08T08:59:51;8.20;99.90
2929;DHT22;1474;51.460;7.150;2023-01-08T09:02:17;8.30;99.90
2929;DHT22;1474;51.460;7.150;2023-01-08T09:04:43;8.30;99.90
2929;DHT22;1474;51.460;7.150;2023-01-08T09:07:08;8.40;99.90
2929;DHT22;1474;51.460;7.150;2023-01-08T09:09:34;8.40;99.90
2929;DHT22;1474;51.460;7.150;2023-01-08T09:12:00;8.60;99.90
2929;DHT22;1474;51.460;7.150;2023-01-08T09:14:26;9.10;99.90
2929;DHT22;1474;51.460;7.150;2023-01-08T09:16:51;9.50;99.90
2929;DHT22;1474;51.460;7.150;2023-01-08T09:19:17;10.20;99.90
2929;DHT22;1474;51.460;7.150;2023-01-08T09:21:43;10.60;99.90
2929;DHT22;1474;51.460;7.150;2023-01-08T09:24:09;10.80;99.90
2929;DHT22;1474;51.460;7.150;2023-01-08T09:26:35;10.60;99.90
2929;DHT22;1474;51.460;7.150;2023-01-08T09:29:01;10.40;99.90
2929;DHT22;1474;51.460;7.150;2023-01-08T09:31:27;10.40;99.90
2929;DHT22;1474;51.460;7.150;2023-01-08T09:33:53;10.80;99.90
2929;DHT22;1474;51.460;7.150;2023-01-08T09:36:18;10.90;99.90
2929;DHT22;1474;51.460;7.150;2023-01-08T09:38:44;10.90;99.90
2929;DHT22;1474;51.460;7.150;2023-01-08T09:41:28;11.00;99.90
2929;DHT22;1474;51.460;7.150;2023-01-08T09:43:56;11.10;99.90
2929;DHT22;1474;51.460;7.150;2023-01-08T09:46:25;11.10;99.90
2929;DHT22;1474;51.460;7.150;2023-01-08T09:48:53;11.10;99.90
2929;DHT22;1474;51.460;7.150;2023-01-08T09:51:20;11.10;99.90
2929;DHT22;1474;51.460;7.150;2023-01-08T09:53:49;11.10;99.90
2929;DHT22;1474;51.460;7.150;2023-01-08T09:56:18;11.10;99.90
2929;DHT22;1474;51.460;7.150;2023-01-08T09:58:51;10.90;99.90
2929;DHT22;1474;51.460;7.150;2023-01-08T10:01:23;10.70;99.90
2929;DHT22;1474;51.460;7.150;2023-01-08T10:06:28;10.60;99.90
2929;DHT22;1474;51.460;7.150;2023-01-08T10:08:55;10.50;99.90
2929;DHT22;1474;51.460;7.150;2023-01-08T10:11:22;10.40;99.90
2929;DHT22;1474;51.460;7.150;2023-01-08T10:13:53;10.40;99.90
2929;DHT22;1474;51.460;7.150;2023-01-08T10:16:32;10.40;99.90
2929;DHT22;1474;51.460;7.150;2023-01-08T10:19:02;10.40;99.90
2929;DHT22;1474;51.460;7.150;2023-01-08T10:21:36;10.60;99.90
2929;DHT22;1474;51.460;7.150;2023-01-08T10:24:02;10.70;99.90
2929;DHT22;1474;51.460;7.150;2023-01-08T10:26:31;10.90;99.90
2929;DHT22;1474;51.460;7.150;2023-01-08T10:29:17;11.10;99.90
2929;DHT22;1474;51.460;7.150;2023-01-08T10:32:07;11.20;99.90
2929;DHT22;1474;51.460;7.150;2023-01-08T10:34:44;11.30;99.90
2929;DHT22;1474;51.460;7.150;2023-01-08T10:37:39;11.40;99.90
2929;DHT22;1474;51.460;7.150;2023-01-08T10:40:27;11.50;99.90
2929;DHT22;1474;51.460;7.150;2023-01-08T10:42:55;11.50;99.90
2929;DHT22;1474;51.460;7.150;2023-01-08T10:45:24;11.60;99.90
2929;DHT22;1474;51.460;7.150;2023-01-08T10:47:54;11.50;99.90
2929;DHT22;1474;51.460;7.150;2023-01-08T10:50:23;11.50;99.90
2929;DHT22;1474;51.460;7.150;2023-01-08T10:52:58;11.50;99.90
2929;DHT22;1474;51.460;7.150;2023-01-08T10:58:00;11.60;99.90
2929;DHT22;1474;51.460;7.150;2023-01-08T11:00:33;11.50;99.90
2929;DHT22;1474;51.460;7.150;2023-01-08T11:03:07;11.50;99.90
2929;DHT22;1474;51.460;7.150;2023-01-08T11:05:40;11.50;99.90
2929;DHT22;1474;51.460;7.150;2023-01-08T11:08:16;11.60;99.90
2929;DHT22;1474;51.460;7.150;2023-01-08T11:10:55;11.60;99.90
2929;DHT22;1474;51.460;7.150;2023-01-08T11:13:21;11.60;99.90
2929;DHT22;1474;51.460;7.150;2023-01-08T11:18:24;11.70;99.90
2929;DHT22;1474;51.460;7.150;2023-01-08T11:20:52;11.60;99.90
2929;DHT22;1474;51.460;7.150;2023-01-08T11:23:24;11.50;99.90
2929;DHT22;1474;51.460;7.150;2023-01-08T11:28:28;11.30;99.90
2929;DHT22;1474;51.460;7.150;2023-01-08T11:31:18;11.30;99.90
2929;DHT22;1474;51.460;7.150;2023-01-08T11:33:46;11.30;99.90
2929;DHT22;1474;51.460;7.150;2023-01-08T11:36:27;11.30;99.90
2929;DHT22;1474;51.460;7.150;2023-01-08T11:38:54;11.40;99.90
2929;DHT22;1474;51.460;7.150;2023-01-08T11:41:33;11.50;99.90
2929;DHT22;1474;51.460;7.150;2023-01-08T11:47:12;11.60;99.90
2929;DHT22;1474;51.460;7.150;2023-01-08T11:50:02;11.60;99.90
2929;DHT22;1474;51.460;7.150;2023-01-08T11:55:21;11.50;99.90
2929;DHT22;1474;51.460;7.150;2023-01-08T12:03:41;11.30;99.90
2929;DHT22;1474;51.460;7.150;2023-01-08T12:11:31;11.40;99.90
2929;DHT22;1474;51.460;7.150;2023-01-08T12:14:27;11.40;99.90
2929;DHT22;1474;51.460;7.150;2023-01-08T12:17:02;11.40;99.90
2929;DHT22;1474;51.460;7.150;2023-01-08T12:33:54;11.40;99.90
2929;DHT22;1474;51.460;7.150;2023-01-08T12:36:31;11.40;99.90
2929;DHT22;1474;51.460;7.150;2023-01-08T12:39:03;11.30;99.90
2929;DHT22;1474;51.460;7.150;2023-01-08T12:41:32;11.30;99.90
2929;DHT22;1474;51.460;7.150;2023-01-08T12:44:04;11.20;99.90
2929;DHT22;1474;51.460;7.150;2023-01-08T12:46:33;11.00;99.90
2929;DHT22;1474;51.460;7.150;2023-01-08T12:49:00;10.50;99.90
2929;DHT22;1474;51.460;7.150;2023-01-08T12:51:55;9.90;99.90
2929;DHT22;1474;51.460;7.150;2023-01-08T12:54:41;9.50;99.90
2929;DHT22;1474;51.460;7.150;2023-01-08T12:57:40;9.30;99.90
2929;DHT22;1474;51.460;7.150;2023-01-08T13:00:17;9.10;99.90
2929;DHT22;1474;51.460;7.150;2023-01-08T13:07:48;9.10;99.90
2929;DHT22;1474;51.460;7.150;2023-01-08T13:12:51;9.30;99.90
2929;DHT22;1474;51.460;7.150;2023-01-08T13:15:21;9.40;99.90
2929;DHT22;1474;51.460;7.150;2023-01-08T13:17:51;9.50;99.90
2929;DHT22;1474;51.460;7.150;2023-01-08T13:20:24;9.60;99.90
2929;DHT22;1474;51.460;7.150;2023-01-08T13:22:59;9.60;99.90
2929;DHT22;1474;51.460;7.150;2023-01-08T13:25:37;9.60;99.90
2929;DHT22;1474;51.460;7.150;2023-01-08T13:28:37;9.50;99.90
2929;DHT22;1474;51.460;7.150;2023-01-08T13:33:49;9.50;99.90
2929;DHT22;1474;51.460;7.150;2023-01-08T13:36:22;9.50;99.90
2929;DHT22;1474;51.460;7.150;2023-01-08T13:39:18;9.50;99.90
2929;DHT22;1474;51.460;7.150;2023-01-08T13:42:03;9.50;99.90
2929;DHT22;1474;51.460;7.150;2023-01-08T13:44:47;9.50;99.90
2929;DHT22;1474;51.460;7.150;2023-01-08T13:49:52;9.60;99.90
2929;DHT22;1474;51.460;7.150;2023-01-08T13:52:42;9.60;99.90
2929;DHT22;1474;51.460;7.150;2023-01-08T13:55:19;9.50;99.90
2929;DHT22;1474;51.460;7.150;2023-01-08T13:57:48;9.50;99.90
2929;DHT22;1474;51.460;7.150;2023-01-08T14:00:23;9.50;99.90
2929;DHT22;1474;51.460;7.150;2023-01-08T14:02:49;9.50;99.90
2929;DHT22;1474;51.460;7.150;2023-01-08T14:05:21;9.50;99.90
2929;DHT22;1474;51.460;7.150;2023-01-08T14:07:48;9.50;99.90
2929;DHT22;1474;51.460;7.150;2023-01-08T14:10:14;9.50;99.90
2929;DHT22;1474;51.460;7.150;2023-01-08T14:12:41;9.60;99.90
2929;DHT22;1474;51.460;7.150;2023-01-08T14:15:08;9.60;99.90
2929;DHT22;1474;51.460;7.150;2023-01-08T14:17:36;9.60;99.90
2929;DHT22;1474;51.460;7.150;2023-01-08T14:20:01;9.60;99.90
2929;DHT22;1474;51.460;7.150;2023-01-08T14:22:34;9.60;99.90
2929;DHT22;1474;51.460;7.150;2023-01-08T14:25:03;9.70;99.90
2929;DHT22;1474;51.460;7.150;2023-01-08T14:27:30;9.70;99.90
2929;DHT22;1474;51.460;7.150;2023-01-08T14:29:57;9.70;99.90
2929;DHT22;1474;51.460;7.150;2023-01-08T14:32:28;9.80;99.90
2929;DHT22;1474;51.460;7.150;2023-01-08T14:34:54;9.80;99.90
2929;DHT22;1474;51.460;7.150;2023-01-08T14:37:21;9.80;99.90
2929;DHT22;1474;51.460;7.150;2023-01-08T14:39:47;9.80;99.90
2929;DHT22;1474;51.460;7.150;2023-01-08T14:42:23;9.90;99.90
2929;DHT22;1474;51.460;7.150;2023-01-08T14:47:43;9.80;99.90
2929;DHT22;1474;51.460;7.150;2023-01-08T14:53:40;9.70;99.90
2929;DHT22;1474;51.460;7.150;2023-01-08T14:55:47;9.70;99.90
2929;DHT22;1474;51.460;7.150;2023-01-08T14:58:17;9.60;99.90
2929;DHT22;1474;51.460;7.150;2023-01-08T15:00:58;9.60;99.90
2929;DHT22;1474;51.460;7.150;2023-01-08T15:03:29;9.60;99.90
2929;DHT22;1474;51.460;7.150;2023-01-08T15:05:55;9.60;99.90
2929;DHT22;1474;51.460;7.150;2023-01-08T15:08:36;9.60;99.90
2929;DHT22;1474;51.460;7.150;2023-01-08T15:11:04;9.60;99.90
2929;DHT22;1474;51.460;7.150;2023-01-08T15:13:35;9.60;99.90
2929;DHT22;1474;51.460;7.150;2023-01-08T15:16:06;9.50;99.90
2929;DHT22;1474;51.460;7.150;2023-01-08T15:18:44;9.50;99.90
2929;DHT22;1474;51.460;7.150;2023-01-08T15:21:18;9.40;99.90
2929;DHT22;1474;51.460;7.150;2023-01-08T15:23:48;9.30;99.90
2929;DHT22;1474;51.460;7.150;2023-01-08T15:26:15;9.30;99.90
2929;DHT22;1474;51.460;7.150;2023-01-08T15:29:01;9.30;99.90
2929;DHT22;1474;51.460;7.150;2023-01-08T15:33:52;9.20;99.90
2929;DHT22;1474;51.460;7.150;2023-01-08T15:36:18;9.10;99.90
2929;DHT22;1474;51.460;7.150;2023-01-08T15:38:46;9.10;99.90
2929;DHT22;1474;51.460;7.150;2023-01-08T15:41:15;9.20;99.90
2929;DHT22;1474;51.460;7.150;2023-01-08T15:44:02;9.20;99.90
2929;DHT22;1474;51.460;7.150;2023-01-08T15:46:27;9.30;99.90
2929;DHT22;1474;51.460;7.150;2023-01-08T15:48:53;9.30;99.90
2929;DHT22;1474;51.460;7.150;2023-01-08T15:51:19;9.30;99.90
2929;DHT22;1474;51.460;7.150;2023-01-08T15:53:44;9.30;99.90
2929;DHT22;1474;51.460;7.150;2023-01-08T15:56:10;9.40;99.90
2929;DHT22;1474;51.460;7.150;2023-01-08T15:58:35;9.40;99.90
2929;DHT22;1474;51.460;7.150;2023-01-08T16:01:01;9.40;99.90
2929;DHT22;1474;51.460;7.150;2023-01-08T16:03:26;9.40;99.90
2929;DHT22;1474;51.460;7.150;2023-01-08T16:05:55;9.40;99.90
2929;DHT22;1474;51.460;7.150;2023-01-08T16:08:20;9.40;99.90
2929;DHT22;1474;51.460;7.150;2023-01-08T16:10:51;9.40;99.90
2929;DHT22;1474;51.460;7.150;2023-01-08T16:13:17;9.40;99.90
2929;DHT22;1474;51.460;7.150;2023-01-08T16:15:42;9.40;99.90
2929;DHT22;1474;51.460;7.150;2023-01-08T16:18:08;9.50;99.90
2929;DHT22;1474;51.460;7.150;2023-01-08T16:20:34;9.50;99.90
2929;DHT22;1474;51.460;7.150;2023-01-08T16:22:59;9.50;99.90
2929;DHT22;1474;51.460;7.150;2023-01-08T16:25:25;9.50;99.90
2929;DHT22;1474;51.460;7.150;2023-01-08T16:27:51;9.50;99.90
2929;DHT22;1474;51.460;7.150;2023-01-08T16:30:17;9.50;99.90
2929;DHT22;1474;51.460;7.150;2023-01-08T16:32:43;9.50;99.90
2929;DHT22;1474;51.460;7.150;2023-01-08T16:35:09;9.50;99.90
2929;DHT22;1474;51.460;7.150;2023-01-08T16:37:35;9.50;99.90
2929;DHT22;1474;51.460;7.150;2023-01-08T16:40:01;9.60;99.90
2929;DHT22;1474;51.460;7.150;2023-01-08T16:42:27;9.60;99.90
2929;DHT22;1474;51.460;7.150;2023-01-08T16:44:52;9.60;99.90
2929;DHT22;1474;51.460;7.150;2023-01-08T16:47:18;9.60;99.90
2929;DHT22;1474;51.460;7.150;2023-01-08T16:49:43;9.60;99.90
2929;DHT22;1474;51.460;7.150;2023-01-08T16:52:09;9.60;99.90
2929;DHT22;1474;51.460;7.150;2023-01-08T16:54:35;9.60;99.90
2929;DHT22;1474;51.460;7.150;2023-01-08T16:57:01;9.50;99.90
2929;DHT22;1474;51.460;7.150;2023-01-08T16:59:27;9.60;99.90
2929;DHT22;1474;51.460;7.150;2023-01-08T17:01:53;9.60;99.90
2929;DHT22;1474;51.460;7.150;2023-01-08T17:04:19;9.50;99.90
2929;DHT22;1474;51.460;7.150;2023-01-08T17:06:45;9.40;99.90
2929;DHT22;1474;51.460;7.150;2023-01-08T17:09:11;9.40;99.90
2929;DHT22;1474;51.460;7.150;2023-01-08T17:11:38;9.40;99.90
2929;DHT22;1474;51.460;7.150;2023-01-08T17:14:04;9.30;99.90
2929;DHT22;1474;51.460;7.150;2023-01-08T17:16:29;9.30;99.90
2929;DHT22;1474;51.460;7.150;2023-01-08T17:18:55;9.20;99.90
2929;DHT22;1474;51.460;7.150;2023-01-08T17:21:21;9.30;99.90
2929;DHT22;1474;51.460;7.150;2023-01-08T17:23:47;9.20;99.90
2929;DHT22;1474;51.460;7.150;2023-01-08T17:26:14;9.20;99.90
2929;DHT22;1474;51.460;7.150;2023-01-08T17:28:41;9.10;99.90
2929;DHT22;1474;51.460;7.150;2023-01-08T17:31:10;9.10;99.90
2929;DHT22;1474;51.460;7.150;2023-01-08T17:33:36;9.10;99.90
2929;DHT22;1474;51.460;7.150;2023-01-08T17:36:13;9.10;99.90
2929;DHT22;1474;51.460;7.150;2023-01-08T17:38:39;9.10;99.90